Time;durP1;ratioP1;P1;durP2;ratioP2;P2;SDS_P1;SDS_P2;PMS_P1;PMS_P2;Temp;Humidity;BMP_temperature;BMP_pressure;BME280_temperature;BME280_humidity;BME280_pressure;Samples;Min_cycle;Max_cycle;Signal;HPM_P1;HPM_P2
2021/12/10 00:02:16;;;;;;;48.50;18.30;;;;;;;;;;5016650;28;20033;-72
2021/12/10 00:04:44;;;;;;;48.72;18.48;;;;;;;;;;5032701;28;20474;-71
2021/12/10 00:07:12;;;;;;;40.95;17.70;;;;;;;;;;5032117;28;20046;-71
2021/12/10 00:09:40;;;;;;;53.03;18.63;;;;;;;;;;5036372;28;20028;-70
2021/12/10 00:12:19;;;;;;;52.63;18.58;;;;;;;;;;5033964;28;20028;-73
2021/12/10 00:14:47;;;;;;;50.38;16.60;;;;;;;;;;5033603;28;20035;-72
2021/12/10 00:17:15;;;;;;;50.85;18.95;;;;;;;;;;5035302;28;20024;-73
2021/12/10 00:19:49;;;;;;;50.30;17.98;;;;;;;;;;5034709;28;20037;-72
2021/12/10 00:22:17;;;;;;;44.05;16.77;;;;;;;;;;5032786;28;20079;-71
2021/12/10 00:24:46;;;;;;;43.65;16.17;;;;;;;;;;5033333;28;20589;-71
2021/12/10 00:27:12;;;;;;;46.92;15.07;;;;;;;;;;5034910;28;20032;-74
2021/12/10 00:29:40;;;;;;;50.95;16.67;;;;;;;;;;5032642;28;20044;-74
2021/12/10 00:32:17;;;;;;;42.40;16.45;;;;;;;;;;5038323;28;20157;-73
2021/12/10 00:34:45;;;;;;;37.30;15.38;;;;;;;;;;5034248;28;20037;-74
2021/12/10 00:37:16;;;;;;;50.63;16.58;;;;;;;;;;5035399;28;20024;-72
2021/12/10 00:39:52;;;;;;;43.40;16.23;;;;;;;;;;5033257;28;20052;-74
2021/12/10 00:42:21;;;;;;;39.35;15.98;;;;;;;;;;5032859;28;20087;-72
2021/12/10 00:44:54;;;;;;;46.03;16.00;;;;;;;;;;5033909;28;20701;-74
2021/12/10 00:47:22;;;;;;;43.88;16.25;;;;;;;;;;5034503;28;20163;-71
2021/12/10 00:49:51;;;;;;;39.58;15.90;;;;;;;;;;5038608;28;20045;-72
2021/12/10 00:52:22;;;;;;;46.55;15.68;;;;;;;;;;5032401;28;20123;-73
2021/12/10 00:54:48;;;;;;;38.63;16.33;;;;;;;;;;5032338;28;20888;-72
2021/12/10 00:57:21;;;;;;;44.50;14.57;;;;;;;;;;5032561;28;20024;-72
2021/12/10 00:59:50;;;;;;;38.65;14.63;;;;;;;;;;5034868;28;20040;-73
2021/12/10 01:02:19;;;;;;;45.70;16.77;;;;;;;;;;5030530;28;20033;-73
2021/12/10 01:04:49;;;;;;;38.38;14.48;;;;;;;;;;5037384;28;20135;-70
2021/12/10 01:07:17;;;;;;;41.45;14.35;;;;;;;;;;5035914;28;20101;-70
2021/12/10 01:09:47;;;;;;;46.30;15.15;;;;;;;;;;5035160;28;20106;-72
2021/12/10 01:12:22;;;;;;;41.67;15.57;;;;;;;;;;5017350;28;20043;-71
2021/12/10 01:25:37;;;;;;;34.95;14.88;;;;;;;;;;5038553;28;22415;-73
2021/12/10 01:28:03;;;;;;;47.05;15.02;;;;;;;;;;5035483;28;20175;-73
2021/12/10 01:30:31;;;;;;;43.47;15.50;;;;;;;;;;5037708;28;20026;-72
2021/12/10 01:33:01;;;;;;;44.17;14.05;;;;;;;;;;5036951;28;20036;-75
2021/12/10 01:35:32;;;;;;;42.72;14.98;;;;;;;;;;5042753;28;20043;-72
2021/12/10 01:38:01;;;;;;;44.97;15.68;;;;;;;;;;5039479;28;20965;-72
2021/12/10 01:40:27;;;;;;;36.17;14.18;;;;;;;;;;5036343;28;20031;-71
2021/12/10 01:43:05;;;;;;;39.17;13.45;;;;;;;;;;5056670;28;20581;-72
2021/12/10 01:45:44;;;;;;;41.10;14.38;;;;;;;;;;5038059;28;20043;-73
2021/12/10 01:48:12;;;;;;;35.67;14.15;;;;;;;;;;5040633;28;20062;-72
2021/12/10 01:50:40;;;;;;;40.42;14.82;;;;;;;;;;5039455;28;20028;-72
2021/12/10 01:53:11;;;;;;;44.50;14.90;;;;;;;;;;5036259;28;20684;-72
2021/12/10 01:55:47;;;;;;;39.03;13.32;;;;;;;;;;5035079;28;20045;-73
2021/12/10 01:58:16;;;;;;;38.10;13.00;;;;;;;;;;5040794;28;20401;-72
2021/12/10 02:00:45;;;;;;;40.42;14.40;;;;;;;;;;5039417;28;20052;-72
2021/12/10 02:03:13;;;;;;;42.90;14.05;;;;;;;;;;5023108;28;20147;-71
2021/12/10 02:05:44;;;;;;;36.38;12.45;;;;;;;;;;5037087;28;20024;-72
2021/12/10 02:08:12;;;;;;;30.63;12.00;;;;;;;;;;5035275;28;20080;-72
2021/12/10 02:10:37;;;;;;;27.83;12.45;;;;;;;;;;5035980;28;20554;-71
2021/12/10 02:13:07;;;;;;;35.00;12.90;;;;;;;;;;5043795;28;20090;-71
2021/12/10 02:15:33;;;;;;;32.90;12.07;;;;;;;;;;5007371;28;20562;-72
2021/12/10 02:18:02;;;;;;;29.77;11.60;;;;;;;;;;5036243;28;20836;-73
2021/12/10 02:20:32;;;;;;;29.67;10.85;;;;;;;;;;5036325;28;20033;-70
2021/12/10 02:22:58;;;;;;;33.70;12.00;;;;;;;;;;5036278;28;20029;-71
2021/12/10 02:25:27;;;;;;;37.53;11.00;;;;;;;;;;5033036;28;20074;-71
2021/12/10 02:27:56;;;;;;;34.50;12.35;;;;;;;;;;5022769;28;20132;-71
2021/12/10 02:30:24;;;;;;;36.80;11.60;;;;;;;;;;5048288;28;20062;-66
2021/12/10 02:32:57;;;;;;;28.23;11.27;;;;;;;;;;5034672;28;20029;-72
2021/12/10 02:35:31;;;;;;;29.13;13.88;;;;;;;;;;5032906;28;20036;-72
2021/12/10 02:38:04;;;;;;;38.83;12.38;;;;;;;;;;5035262;28;20567;-72
2021/12/10 02:40:30;;;;;;;26.10;11.65;;;;;;;;;;5035499;28;20040;-72
2021/12/10 02:42:59;;;;;;;36.58;12.35;;;;;;;;;;5034572;28;20082;-69
2021/12/10 02:45:25;;;;;;;39.33;11.52;;;;;;;;;;5044620;28;20023;-72
2021/12/10 02:47:53;;;;;;;28.73;12.00;;;;;;;;;;5035873;28;20529;-70
2021/12/10 02:50:23;;;;;;;32.97;12.18;;;;;;;;;;5035690;28;20029;-71
2021/12/10 02:52:53;;;;;;;34.20;11.73;;;;;;;;;;5041657;28;20036;-73
2021/12/10 02:55:22;;;;;;;27.35;11.85;;;;;;;;;;5039453;28;20040;-72
2021/12/10 02:57:54;;;;;;;35.17;11.15;;;;;;;;;;5039290;28;22876;-73
2021/12/10 03:00:27;;;;;;;28.90;11.43;;;;;;;;;;5040087;28;20068;-75
2021/12/10 03:02:58;;;;;;;37.97;11.88;;;;;;;;;;5035102;28;20032;-72
2021/12/10 03:05:31;;;;;;;42.95;12.10;;;;;;;;;;5033346;28;20109;-72
2021/12/10 03:07:56;;;;;;;24.58;11.95;;;;;;;;;;5039734;28;20081;-70
2021/12/10 03:10:24;;;;;;;28.83;12.98;;;;;;;;;;5049932;28;20041;-71
2021/12/10 03:12:54;;;;;;;34.05;12.85;;;;;;;;;;5031974;28;20051;-73
2021/12/10 03:15:22;;;;;;;31.95;12.10;;;;;;;;;;5029857;28;20037;-74
2021/12/10 03:17:52;;;;;;;26.75;11.82;;;;;;;;;;5038626;28;20024;-71
2021/12/10 03:20:20;;;;;;;30.00;12.00;;;;;;;;;;5033277;28;20056;-70
2021/12/10 03:22:48;;;;;;;30.33;11.48;;;;;;;;;;5050301;28;20012;-70
2021/12/10 03:25:18;;;;;;;42.40;13.65;;;;;;;;;;5036169;28;20029;-71
2021/12/10 03:27:47;;;;;;;31.70;13.13;;;;;;;;;;5034013;28;20060;-70
2021/12/10 03:30:15;;;;;;;34.50;12.00;;;;;;;;;;5035664;28;20452;-71
2021/12/10 03:32:45;;;;;;;33.25;11.90;;;;;;;;;;5033082;28;20024;-75
2021/12/10 03:35:16;;;;;;;34.33;12.60;;;;;;;;;;5033237;28;20032;-73
2021/12/10 03:37:45;;;;;;;33.08;13.93;;;;;;;;;;5036145;28;20032;-71
2021/12/10 03:40:16;;;;;;;28.42;12.20;;;;;;;;;;5037555;28;20028;-73
2021/12/10 03:42:47;;;;;;;30.15;13.63;;;;;;;;;;5038612;28;20033;-72
2021/12/10 03:45:14;;;;;;;29.50;11.75;;;;;;;;;;5048579;28;20163;-71
2021/12/10 03:47:49;;;;;;;32.38;12.35;;;;;;;;;;5036781;28;20033;-71
2021/12/10 03:50:23;;;;;;;30.10;11.32;;;;;;;;;;5033835;28;20133;-70
2021/12/10 03:52:52;;;;;;;34.97;12.75;;;;;;;;;;5034418;28;20152;-71
2021/12/10 03:55:22;;;;;;;35.67;12.75;;;;;;;;;;5035557;28;20041;-73
2021/12/10 03:57:53;;;;;;;27.92;12.32;;;;;;;;;;5031356;28;20025;-70
2021/12/10 04:00:22;;;;;;;35.55;13.80;;;;;;;;;;5036122;28;20055;-71
2021/12/10 04:02:50;;;;;;;27.27;11.98;;;;;;;;;;5041177;28;20075;-71
2021/12/10 04:05:16;;;;;;;27.15;12.18;;;;;;;;;;5032885;28;20657;-71
2021/12/10 04:07:42;;;;;;;31.33;11.65;;;;;;;;;;5035185;28;20042;-74
2021/12/10 04:10:11;;;;;;;33.47;11.98;;;;;;;;;;5021536;28;21687;-71
2021/12/10 04:12:39;;;;;;;33.30;12.50;;;;;;;;;;5036006;28;20012;-71
2021/12/10 04:15:09;;;;;;;27.90;12.20;;;;;;;;;;5035256;28;20029;-70
2021/12/10 04:17:34;;;;;;;29.02;11.68;;;;;;;;;;5020929;28;20039;-71
2021/12/10 04:20:00;;;;;;;37.95;12.88;;;;;;;;;;5038443;28;20032;-71
2021/12/10 04:22:32;;;;;;;37.67;13.93;;;;;;;;;;5022825;28;20021;-71
2021/12/10 04:25:01;;;;;;;41.00;13.02;;;;;;;;;;5033818;28;20078;-68
2021/12/10 04:27:29;;;;;;;30.25;13.27;;;;;;;;;;5047573;28;20801;-72
2021/12/10 04:29:59;;;;;;;32.88;13.43;;;;;;;;;;5032134;28;20040;-71
2021/12/10 04:32:27;;;;;;;34.13;13.68;;;;;;;;;;5034346;28;20028;-71
2021/12/10 04:34:53;;;;;;;39.20;15.20;;;;;;;;;;5031893;28;20120;-71
2021/12/10 04:37:19;;;;;;;28.90;14.02;;;;;;;;;;5034191;28;20037;-71
2021/12/10 04:39:48;;;;;;;35.22;14.20;;;;;;;;;;5034932;28;20047;-72
2021/12/10 04:42:19;;;;;;;40.15;15.60;;;;;;;;;;5030951;28;20029;-70
2021/12/10 04:44:49;;;;;;;41.40;15.77;;;;;;;;;;5015112;28;20124;-69
2021/12/10 04:47:19;;;;;;;36.05;15.85;;;;;;;;;;5035742;28;20028;-71
2021/12/10 04:49:48;;;;;;;34.25;15.75;;;;;;;;;;5048622;28;20491;-70
2021/12/10 04:52:15;;;;;;;35.30;16.25;;;;;;;;;;5039088;28;20131;-72
2021/12/10 04:54:45;;;;;;;35.42;15.27;;;;;;;;;;5035595;28;20774;-71
2021/12/10 04:57:16;;;;;;;37.08;15.75;;;;;;;;;;5030767;28;20163;-69
2021/12/10 04:59:42;;;;;;;36.67;15.35;;;;;;;;;;5033530;28;20041;-70
2021/12/10 05:02:10;;;;;;;35.80;16.88;;;;;;;;;;5045010;28;20745;-68
2021/12/10 05:04:44;;;;;;;43.10;17.13;;;;;;;;;;5017336;28;20037;-73
2021/12/10 05:07:12;;;;;;;52.13;17.20;;;;;;;;;;5032335;28;20037;-70
2021/12/10 05:09:38;;;;;;;46.40;18.90;;;;;;;;;;5034037;28;20462;-70
2021/12/10 05:12:04;;;;;;;36.78;16.02;;;;;;;;;;5048096;28;20024;-70
2021/12/10 05:14:31;;;;;;;37.55;16.23;;;;;;;;;;5033691;28;20025;-71
2021/12/10 05:17:03;;;;;;;39.42;16.95;;;;;;;;;;5050609;28;21052;-70
2021/12/10 05:19:30;;;;;;;35.45;15.45;;;;;;;;;;5020659;28;20860;-69
2021/12/10 05:21:59;;;;;;;40.58;16.17;;;;;;;;;;5033820;28;20257;-69
2021/12/10 05:24:25;;;;;;;34.28;16.52;;;;;;;;;;5033699;28;20643;-71
2021/12/10 05:26:53;;;;;;;43.30;16.90;;;;;;;;;;5031635;28;20120;-69
2021/12/10 05:29:21;;;;;;;39.53;15.77;;;;;;;;;;5035084;28;20689;-69
2021/12/10 05:31:47;;;;;;;45.00;17.25;;;;;;;;;;5031439;28;20032;-69
2021/12/10 05:34:15;;;;;;;34.75;14.57;;;;;;;;;;5030945;28;20067;-70
2021/12/10 05:36:43;;;;;;;36.55;14.77;;;;;;;;;;5037448;28;20040;-69
2021/12/10 05:39:14;;;;;;;43.65;16.45;;;;;;;;;;5020565;28;20051;-70
2021/12/10 05:41:40;;;;;;;31.27;14.52;;;;;;;;;;5040516;28;20041;-71
2021/12/10 05:44:09;;;;;;;33.70;14.65;;;;;;;;;;5031267;28;20137;-71
2021/12/10 05:46:37;;;;;;;42.55;14.88;;;;;;;;;;5033830;28;20041;-70
2021/12/10 05:49:04;;;;;;;36.42;15.38;;;;;;;;;;5017164;28;20033;-70
2021/12/10 05:51:30;;;;;;;35.50;15.05;;;;;;;;;;5030790;28;20041;-73
2021/12/10 05:54:00;;;;;;;41.35;16.25;;;;;;;;;;5018392;28;21949;-71
2021/12/10 05:56:29;;;;;;;40.17;15.80;;;;;;;;;;5035599;28;20120;-72
2021/12/10 05:58:54;;;;;;;42.40;15.43;;;;;;;;;;5032196;28;20130;-69
2021/12/10 06:01:24;;;;;;;39.92;16.73;;;;;;;;;;5033370;28;20059;-69
2021/12/10 06:03:56;;;;;;;46.20;16.52;;;;;;;;;;5033056;28;20048;-71
2021/12/10 06:06:28;;;;;;;32.20;15.50;;;;;;;;;;5033071;28;20960;-71
2021/12/10 06:12:28;;;;;;;37.30;14.52;;;;;;;;;;5039044;28;20098;-68
2021/12/10 06:14:54;;;;;;;45.90;17.73;;;;;;;;;;5043672;28;20972;-69
2021/12/10 06:17:19;;;;;;;42.60;17.00;;;;;;;;;;5027206;28;20048;-68
2021/12/10 06:19:50;;;;;;;44.28;17.85;;;;;;;;;;5037549;28;20056;-67
2021/12/10 06:22:18;;;;;;;38.05;16.48;;;;;;;;;;5031406;28;20518;-67
2021/12/10 06:24:43;;;;;;;36.95;15.02;;;;;;;;;;5039101;28;20029;-68
2021/12/10 06:27:09;;;;;;;41.20;15.68;;;;;;;;;;5036826;28;20113;-68
2021/12/10 06:29:41;;;;;;;39.08;16.30;;;;;;;;;;5023916;28;20020;-68
2021/12/10 06:32:09;;;;;;;36.80;15.15;;;;;;;;;;5038062;28;20029;-68
2021/12/10 06:34:35;;;;;;;39.40;15.52;;;;;;;;;;5044286;28;20047;-69
2021/12/10 06:37:03;;;;;;;35.80;16.17;;;;;;;;;;5032818;28;20033;-69
2021/12/10 06:39:29;;;;;;;42.75;17.58;;;;;;;;;;5037382;28;20544;-68
2021/12/10 06:41:55;;;;;;;64.82;23.00;;;;;;;;;;5036443;28;20024;-70
2021/12/10 06:44:22;;;;;;;38.58;17.23;;;;;;;;;;5042941;28;20025;-69
2021/12/10 06:46:50;;;;;;;36.95;17.05;;;;;;;;;;5052395;28;20112;-66
2021/12/10 06:49:16;;;;;;;45.97;16.27;;;;;;;;;;5038369;28;20081;-69
2021/12/10 06:51:44;;;;;;;37.53;14.40;;;;;;;;;;5038956;28;20119;-69
2021/12/10 06:54:10;;;;;;;37.00;15.60;;;;;;;;;;5023793;28;20061;-71
2021/12/10 06:56:38;;;;;;;41.22;16.95;;;;;;;;;;5048061;28;20078;-66
2021/12/10 06:59:07;;;;;;;32.40;14.55;;;;;;;;;;5038868;28;20040;-69
2021/12/10 07:01:39;;;;;;;36.72;15.25;;;;;;;;;;5023556;28;20021;-68
2021/12/10 07:04:06;;;;;;;33.55;14.35;;;;;;;;;;5037225;28;22055;-67
2021/12/10 07:06:37;;;;;;;32.45;14.25;;;;;;;;;;5038125;28;20141;-68
2021/12/10 07:09:07;;;;;;;34.10;13.45;;;;;;;;;;5035423;28;20051;-69
2021/12/10 07:11:35;;;;;;;32.15;13.45;;;;;;;;;;5035153;28;20032;-69
2021/12/10 07:14:00;;;;;;;30.50;12.40;;;;;;;;;;5033784;28;20522;-71
2021/12/10 07:16:27;;;;;;;28.70;12.55;;;;;;;;;;5019274;28;20653;-65
2021/12/10 07:18:53;;;;;;;32.92;13.10;;;;;;;;;;5033085;28;20809;-68
2021/12/10 07:21:19;;;;;;;27.55;12.40;;;;;;;;;;5042756;28;20036;-68
2021/12/10 07:23:48;;;;;;;20.75;10.27;;;;;;;;;;5033789;28;20883;-69
2021/12/10 07:26:17;;;;;;;24.73;11.13;;;;;;;;;;5037807;28;20357;-70
2021/12/10 07:28:46;;;;;;;30.15;12.48;;;;;;;;;;5033503;28;20033;-71
2021/12/10 07:31:11;;;;;;;27.35;12.32;;;;;;;;;;5033603;28;20047;-70
2021/12/10 07:33:43;;;;;;;31.33;11.05;;;;;;;;;;5035389;28;20543;-70
2021/12/10 07:36:09;;;;;;;30.75;12.57;;;;;;;;;;5050186;28;20036;-68
2021/12/10 07:38:35;;;;;;;27.63;11.13;;;;;;;;;;5037236;28;20065;-68
2021/12/10 07:41:03;;;;;;;26.88;10.82;;;;;;;;;;5035232;28;20044;-68
2021/12/10 07:43:31;;;;;;;20.73;10.82;;;;;;;;;;5033228;28;20167;-70
2021/12/10 07:45:57;;;;;;;21.85;11.05;;;;;;;;;;5024531;28;20212;-69
2021/12/10 07:48:26;;;;;;;26.00;10.35;;;;;;;;;;5021570;28;20024;-70
2021/12/10 07:50:58;;;;;;;20.75;9.95;;;;;;;;;;5016030;28;20510;-69
2021/12/10 07:53:24;;;;;;;20.55;10.05;;;;;;;;;;5035926;28;20566;-67
2021/12/10 07:55:49;;;;;;;22.70;10.05;;;;;;;;;;5034623;28;20033;-69
2021/12/10 07:58:17;;;;;;;23.17;10.00;;;;;;;;;;5031247;28;20041;-69
2021/12/10 08:00:47;;;;;;;26.40;9.57;;;;;;;;;;5034235;28;20896;-68
2021/12/10 08:03:15;;;;;;;21.42;9.73;;;;;;;;;;5034114;28;20020;-69
2021/12/10 08:05:41;;;;;;;18.92;9.18;;;;;;;;;;5030120;28;20033;-69
2021/12/10 08:08:07;;;;;;;24.75;9.73;;;;;;;;;;5039041;28;20035;-66
2021/12/10 08:10:34;;;;;;;15.82;7.90;;;;;;;;;;5020729;28;20021;-69
2021/12/10 08:13:04;;;;;;;21.00;10.43;;;;;;;;;;5025601;28;20426;-69
2021/12/10 08:15:29;;;;;;;19.98;8.65;;;;;;;;;;5046221;28;20143;-67
2021/12/10 08:18:00;;;;;;;21.63;9.95;;;;;;;;;;5023629;28;20021;-70
2021/12/10 08:20:26;;;;;;;23.52;9.02;;;;;;;;;;5024180;28;20033;-70
2021/12/10 08:22:55;;;;;;;20.25;9.10;;;;;;;;;;5036104;28;20025;-69
2021/12/10 08:25:21;;;;;;;16.20;8.27;;;;;;;;;;5026548;28;20058;-66
2021/12/10 08:27:47;;;;;;;16.50;8.60;;;;;;;;;;5051276;28;20043;-69
2021/12/10 08:30:13;;;;;;;17.98;7.60;;;;;;;;;;5038316;28;20032;-70
2021/12/10 08:32:42;;;;;;;18.38;7.82;;;;;;;;;;5039306;28;20472;-70
2021/12/10 08:35:12;;;;;;;18.10;8.45;;;;;;;;;;5030668;28;20033;-70
2021/12/10 08:37:42;;;;;;;17.67;8.15;;;;;;;;;;5037173;28;20037;-69
2021/12/10 08:40:12;;;;;;;16.33;7.35;;;;;;;;;;5033019;28;20033;-67
2021/12/10 08:42:43;;;;;;;22.02;8.85;;;;;;;;;;5029252;28;20028;-69
2021/12/10 08:45:09;;;;;;;16.88;7.57;;;;;;;;;;5035285;28;20025;-69
2021/12/10 08:47:35;;;;;;;16.13;6.78;;;;;;;;;;5034525;28;20038;-69
2021/12/10 08:50:04;;;;;;;13.27;6.57;;;;;;;;;;5047097;28;20380;-67
2021/12/10 08:52:29;;;;;;;13.38;6.72;;;;;;;;;;5037406;28;20439;-70
2021/12/10 08:54:57;;;;;;;11.68;6.53;;;;;;;;;;5030190;28;20072;-70
2021/12/10 08:57:24;;;;;;;18.25;6.55;;;;;;;;;;5036615;28;20352;-69
2021/12/10 08:59:50;;;;;;;13.60;6.30;;;;;;;;;;5016634;28;20156;-68
2021/12/10 09:02:16;;;;;;;12.35;5.85;;;;;;;;;;5033775;28;20086;-67
2021/12/10 09:04:41;;;;;;;17.48;6.25;;;;;;;;;;5030445;28;20167;-68
2021/12/10 09:07:10;;;;;;;11.30;5.70;;;;;;;;;;5025903;28;20033;-70
2021/12/10 09:09:37;;;;;;;12.90;5.90;;;;;;;;;;5030627;28;20047;-69
2021/12/10 09:12:17;;;;;;;15.32;5.82;;;;;;;;;;5028847;28;20047;-69
2021/12/10 09:14:47;;;;;;;16.98;6.55;;;;;;;;;;5044537;28;20047;-68
2021/12/10 09:17:13;;;;;;;18.10;7.43;;;;;;;;;;5028389;28;20121;-70
2021/12/10 09:19:40;;;;;;;12.93;6.00;;;;;;;;;;5031770;28;20139;-71
2021/12/10 09:22:10;;;;;;;12.68;6.40;;;;;;;;;;5033833;28;20020;-70
2021/12/10 09:24:39;;;;;;;12.73;5.55;;;;;;;;;;5030371;28;20017;-69
2021/12/10 09:27:10;;;;;;;12.57;5.90;;;;;;;;;;5029253;28;20407;-69
2021/12/10 09:29:37;;;;;;;12.48;5.65;;;;;;;;;;5044574;28;20039;-66
2021/12/10 09:32:08;;;;;;;12.13;5.93;;;;;;;;;;5029354;28;20036;-71
2021/12/10 09:34:36;;;;;;;11.32;5.75;;;;;;;;;;5048317;28;20399;-66
2021/12/10 09:37:04;;;;;;;13.68;5.50;;;;;;;;;;5030643;28;20024;-70
2021/12/10 09:39:31;;;;;;;10.75;5.53;;;;;;;;;;5034909;28;20692;-70
2021/12/10 09:41:57;;;;;;;8.95;4.78;;;;;;;;;;5030101;28;20957;-68
2021/12/10 09:44:23;;;;;;;13.55;5.50;;;;;;;;;;5047172;28;20040;-67
2021/12/10 09:46:49;;;;;;;9.23;4.90;;;;;;;;;;5034437;28;20021;-69
2021/12/10 09:49:18;;;;;;;13.23;6.38;;;;;;;;;;5038076;28;20032;-69
2021/12/10 09:51:49;;;;;;;11.70;6.25;;;;;;;;;;5033694;28;20892;-70
2021/12/10 09:54:17;;;;;;;14.95;4.90;;;;;;;;;;5038031;28;20412;-66
2021/12/10 09:56:47;;;;;;;9.18;5.32;;;;;;;;;;5050320;28;20028;-68
2021/12/10 09:59:15;;;;;;;11.88;5.75;;;;;;;;;;5036393;28;20785;-68
2021/12/10 10:01:42;;;;;;;10.15;5.22;;;;;;;;;;5034473;28;20060;-69
2021/12/10 10:04:15;;;;;;;14.13;5.22;;;;;;;;;;5040413;28;20067;-70
2021/12/10 10:06:42;;;;;;;11.40;5.60;;;;;;;;;;5037604;28;20148;-70
2021/12/10 10:09:09;;;;;;;15.15;5.30;;;;;;;;;;5044254;28;20114;-69
2021/12/10 10:11:37;;;;;;;16.80;5.28;;;;;;;;;;5036887;28;20040;-70
2021/12/10 10:14:03;;;;;;;10.13;4.80;;;;;;;;;;5042555;28;20025;-67
2021/12/10 10:16:31;;;;;;;12.55;6.00;;;;;;;;;;5036543;28;20076;-72
2021/12/10 10:18:59;;;;;;;8.32;4.82;;;;;;;;;;5037318;28;20471;-68
2021/12/10 10:21:36;;;;;;;9.93;4.50;;;;;;;;;;5051637;28;20083;-69
2021/12/10 10:24:04;;;;;;;18.50;5.65;;;;;;;;;;5035589;28;20124;-68
2021/12/10 10:26:36;;;;;;;17.25;6.05;;;;;;;;;;5038236;28;21575;-67
2021/12/10 10:29:12;;;;;;;8.90;4.70;;;;;;;;;;5039020;28;20148;-69
2021/12/10 10:31:42;;;;;;;12.75;5.82;;;;;;;;;;5025416;28;20056;-67
2021/12/10 10:34:09;;;;;;;10.45;5.65;;;;;;;;;;5027486;28;20037;-69
2021/12/10 10:36:38;;;;;;;16.20;5.50;;;;;;;;;;5034107;28;20033;-70
2021/12/10 10:39:14;;;;;;;11.35;5.90;;;;;;;;;;5023705;28;20029;-69
2021/12/10 10:41:39;;;;;;;16.08;5.38;;;;;;;;;;5031248;28;20033;-68
2021/12/10 10:44:07;;;;;;;7.97;4.38;;;;;;;;;;5047429;28;20037;-68
2021/12/10 10:46:34;;;;;;;9.80;4.70;;;;;;;;;;5034647;28;24011;-67
2021/12/10 10:49:00;;;;;;;11.93;5.40;;;;;;;;;;5032403;28;20608;-68
2021/12/10 10:51:32;;;;;;;10.70;5.28;;;;;;;;;;5036258;28;20087;-68
2021/12/10 10:54:02;;;;;;;7.47;4.90;;;;;;;;;;5025703;28;20375;-72
2021/12/10 10:56:34;;;;;;;11.20;4.32;;;;;;;;;;5035959;28;20036;-70
2021/12/10 10:59:04;;;;;;;11.52;5.38;;;;;;;;;;5034838;28;20025;-69
2021/12/10 11:01:33;;;;;;;10.05;4.50;;;;;;;;;;5038784;28;20033;-69
2021/12/10 11:04:03;;;;;;;8.57;4.72;;;;;;;;;;5035617;28;21362;-71
2021/12/10 11:06:50;;;;;;;13.48;4.40;;;;;;;;;;5036326;28;20289;-68
2021/12/10 11:09:22;;;;;;;6.93;3.83;;;;;;;;;;5038350;28;20110;-68
2021/12/10 11:11:52;;;;;;;8.88;4.57;;;;;;;;;;5032234;28;20036;-69
2021/12/10 11:14:43;;;;;;;10.95;5.07;;;;;;;;;;5038100;28;20052;-66
2021/12/10 11:17:12;;;;;;;8.80;4.22;;;;;;;;;;5028733;28;20442;-67
2021/12/10 11:19:41;;;;;;;7.88;4.38;;;;;;;;;;5036802;28;20046;-68
2021/12/10 11:22:12;;;;;;;13.27;3.85;;;;;;;;;;5035342;28;20159;-73
2021/12/10 11:24:46;;;;;;;8.85;3.83;;;;;;;;;;5015108;28;20033;-68
2021/12/10 11:27:24;;;;;;;9.70;4.03;;;;;;;;;;5032553;28;20113;-69
2021/12/10 11:29:58;;;;;;;8.07;4.15;;;;;;;;;;5032743;28;20029;-70
2021/12/10 11:32:29;;;;;;;12.05;4.28;;;;;;;;;;5038850;28;20028;-69
2021/12/10 11:35:01;;;;;;;10.80;4.35;;;;;;;;;;5035968;28;20162;-69
2021/12/10 11:37:39;;;;;;;8.90;3.95;;;;;;;;;;5034640;28;20052;-67
2021/12/10 11:40:06;;;;;;;10.15;3.25;;;;;;;;;;5021971;28;20055;-69
2021/12/10 11:42:45;;;;;;;9.05;4.18;;;;;;;;;;5030418;28;20151;-70
2021/12/10 11:45:33;;;;;;;6.22;3.92;;;;;;;;;;5031866;28;20065;-67
2021/12/10 11:48:13;;;;;;;7.22;3.33;;;;;;;;;;5048907;28;20041;-65
2021/12/10 11:50:47;;;;;;;11.13;3.40;;;;;;;;;;5031528;28;20514;-69
2021/12/10 11:53:17;;;;;;;7.40;3.83;;;;;;;;;;5034157;28;20036;-69
2021/12/10 11:56:01;;;;;;;10.48;2.95;;;;;;;;;;5046824;28;20094;-69
2021/12/10 11:58:31;;;;;;;6.57;2.80;;;;;;;;;;5046328;28;20059;-68
2021/12/10 12:00:57;;;;;;;9.15;3.25;;;;;;;;;;5038208;28;20183;-69
2021/12/10 12:03:30;;;;;;;6.57;3.38;;;;;;;;;;5017002;28;20040;-69
2021/12/10 12:05:56;;;;;;;6.10;3.28;;;;;;;;;;5047349;28;20062;-69
2021/12/10 12:08:26;;;;;;;8.20;3.60;;;;;;;;;;5033074;28;20470;-69
2021/12/10 12:10:55;;;;;;;4.70;2.92;;;;;;;;;;5031548;28;20486;-66
2021/12/10 12:16:35;;;;;;;6.95;3.30;;;;;;;;;;5031716;28;20037;-65
2021/12/10 12:19:03;;;;;;;7.00;2.70;;;;;;;;;;5029411;28;20641;-66
2021/12/10 12:27:10;;;;;;;9.38;3.65;;;;;;;;;;5034178;28;20052;-69
2021/12/10 12:29:46;;;;;;;7.00;2.95;;;;;;;;;;5034659;28;20538;-69
2021/12/10 12:32:25;;;;;;;5.65;2.83;;;;;;;;;;5031492;28;20137;-69
2021/12/10 12:34:55;;;;;;;7.15;3.17;;;;;;;;;;5032017;28;20037;-65
2021/12/10 12:37:23;;;;;;;6.80;2.53;;;;;;;;;;5031421;28;20104;-69
2021/12/10 12:40:00;;;;;;;5.38;2.67;;;;;;;;;;5031554;28;20057;-65
2021/12/10 12:42:35;;;;;;;10.40;3.53;;;;;;;;;;5031671;28;20091;-68
2021/12/10 12:45:11;;;;;;;6.40;2.78;;;;;;;;;;5033078;28;20081;-68
2021/12/10 12:47:37;;;;;;;5.78;2.90;;;;;;;;;;5045864;28;20060;-67
2021/12/10 12:50:08;;;;;;;8.65;3.05;;;;;;;;;;5023147;28;20020;-71
2021/12/10 12:52:41;;;;;;;4.25;2.60;;;;;;;;;;5032604;28;20025;-68
2021/12/10 12:55:13;;;;;;;4.43;2.85;;;;;;;;;;5024261;28;20680;-68
2021/12/10 12:57:40;;;;;;;8.55;3.10;;;;;;;;;;5029573;28;20057;-68
2021/12/10 13:00:10;;;;;;;7.53;2.90;;;;;;;;;;5033234;28;20055;-69
2021/12/10 13:02:36;;;;;;;8.65;3.78;;;;;;;;;;5030298;28;20520;-69
2021/12/10 13:05:04;;;;;;;7.00;3.10;;;;;;;;;;5031714;28;20024;-70
2021/12/10 13:07:31;;;;;;;6.10;3.60;;;;;;;;;;5032949;28;20032;-70
2021/12/10 13:10:03;;;;;;;4.95;3.13;;;;;;;;;;5022303;28;20119;-70
2021/12/10 13:15:02;;;;;;;5.80;3.33;;;;;;;;;;5035508;28;20037;-69
2021/12/10 13:17:31;;;;;;;7.50;3.42;;;;;;;;;;5015812;28;22703;-70
2021/12/10 13:20:02;;;;;;;9.85;4.13;;;;;;;;;;5035211;28;20391;-70
2021/12/10 13:22:29;;;;;;;7.57;3.65;;;;;;;;;;5051989;28;20024;-69
2021/12/10 13:25:00;;;;;;;9.52;3.90;;;;;;;;;;5036319;28;20021;-66
2021/12/10 13:27:25;;;;;;;11.05;4.40;;;;;;;;;;5030833;28;20021;-69
2021/12/10 13:29:53;;;;;;;11.48;4.60;;;;;;;;;;5032355;28;20033;-68
2021/12/10 13:32:21;;;;;;;6.70;3.65;;;;;;;;;;5029872;28;20147;-68
2021/12/10 13:34:49;;;;;;;7.95;3.95;;;;;;;;;;5018261;28;20020;-70
2021/12/10 13:37:21;;;;;;;7.45;3.58;;;;;;;;;;5020528;28;20033;-70
2021/12/10 13:39:54;;;;;;;9.40;3.95;;;;;;;;;;5030015;28;20875;-70
2021/12/10 13:42:21;;;;;;;;;;;;;;;;;;5021391;28;20497;-66
2021/12/10 13:44:52;;;;;;;6.78;3.95;;;;;;;;;;5029310;28;20047;-69
2021/12/10 13:47:35;;;;;;;11.07;3.53;;;;;;;;;;5034857;28;20541;-68
2021/12/10 13:50:03;;;;;;;8.13;4.05;;;;;;;;;;5035074;28;20266;-69
2021/12/10 13:52:34;;;;;;;8.75;3.58;;;;;;;;;;5032270;28;20939;-70
2021/12/10 13:55:04;;;;;;;6.32;3.55;;;;;;;;;;5012884;28;20021;-70
2021/12/10 13:57:34;;;;;;;6.20;3.42;;;;;;;;;;5030889;28;20033;-69
2021/12/10 14:00:04;;;;;;;10.32;5.20;;;;;;;;;;5033177;28;20047;-63
2021/12/10 14:02:40;;;;;;;10.50;3.88;;;;;;;;;;5033740;28;20033;-66
2021/12/10 14:05:18;;;;;;;9.75;3.85;;;;;;;;;;5035020;28;20025;-65
2021/12/10 14:08:01;;;;;;;13.98;3.88;;;;;;;;;;5033919;28;20061;-64
2021/12/10 14:10:39;;;;;;;10.35;4.38;;;;;;;;;;5049636;28;20112;-64
2021/12/10 14:13:08;;;;;;;7.47;4.15;;;;;;;;;;5033789;28;20249;-64
2021/12/10 14:16:04;;;;;;;10.38;4.05;;;;;;;;;;5020089;28;20096;-66
2021/12/10 14:18:25;;;;;;;13.57;5.20;;;;;;;;;;5033517;28;20032;-65
2021/12/10 14:20:58;;;;;;;14.20;5.35;;;;;;;;;;5034656;28;20040;-65
2021/12/10 14:23:25;;;;;;;9.80;4.38;;;;;;;;;;5024671;28;20020;-65
2021/12/10 14:26:00;;;;;;;10.50;5.05;;;;;;;;;;5049695;28;20033;-66
2021/12/10 14:29:01;;;;;;;15.68;5.00;;;;;;;;;;5033107;28;20052;-66
2021/12/10 14:31:39;;;;;;;11.40;5.63;;;;;;;;;;5034791;28;20345;-66
2021/12/10 14:34:14;;;;;;;10.02;5.60;;;;;;;;;;5037020;28;20311;-65
2021/12/10 14:36:45;;;;;;;10.23;4.90;;;;;;;;;;5035152;28;20995;-64
2021/12/10 14:39:17;;;;;;;15.77;5.18;;;;;;;;;;5023846;28;20108;-64
2021/12/10 14:41:45;;;;;;;7.90;4.53;;;;;;;;;;5025326;28;20029;-65
2021/12/10 14:44:17;;;;;;;15.95;6.50;;;;;;;;;;5042092;28;20028;-61
2021/12/10 14:46:58;;;;;;;17.15;5.65;;;;;;;;;;5029523;28;20852;-61
2021/12/10 14:49:31;;;;;;;9.38;4.65;;;;;;;;;;5041078;28;20556;-61
2021/12/10 14:52:19;;;;;;;18.88;5.53;;;;;;;;;;5036022;28;20614;-63
2021/12/10 14:54:51;;;;;;;12.45;5.07;;;;;;;;;;5050014;28;20743;-61
2021/12/10 14:57:16;;;;;;;14.15;5.63;;;;;;;;;;5031797;28;20039;-62
2021/12/10 14:59:43;;;;;;;14.45;5.07;;;;;;;;;;5035520;28;20064;-62
2021/12/10 15:02:15;;;;;;;14.95;5.28;;;;;;;;;;5030164;28;20033;-62
2021/12/10 15:04:40;;;;;;;13.80;5.25;;;;;;;;;;5037457;28;20291;-62
2021/12/10 15:07:20;;;;;;;10.85;5.07;;;;;;;;;;5031373;28;20166;-60